Sodus, Michigan
Current Conditions -  °F | °C
As of 3:53 PM on Saturday 22 Nov 2014 (Local Time) from KBEH Reporting Station
Haze Haze  
Wind Chill: 40°   Ceiling: 1800
Heat Index: 44°   Visibility: 3mi
Dew Point: 43°   Wind: 8mph
Humidity: 96%   Direction: 190°S
Pressure: 29.91"   Gusts: NA
Location:  42.04°N, 86.37°W
Report Text: KBEH 222053Z AUTO 19007KT 3SM BR FEW006 OVC018 07/06 A2991 RMK AO2 RAE02 SLP133 P0000 60001 T00670061 56007
Loading
Personal Weather Stations






























Interactive Weather Map New forecast layout! Learn more

10-Day Weather Forecast

Advertisements
Track Severe Weather on mobile